Time;durP1;ratioP1;P1;durP2;ratioP2;P2;SDS_P1;SDS_P2;PMS_P1;PMS_P2;Temp;Humidity;BMP_temperature;BMP_pressure;BME280_temperature;BME280_humidity;BME280_pressure;Samples;Min_cycle;Max_cycle;Signal;HPM_P1;HPM_P2
2022/10/05 00:01:51;;;;;;;7.20;5.15;;;21.20;67.40;;;;;;4958908;28;91192;-86
2022/10/05 00:04:23;;;;;;;8.57;5.38;;;21.20;67.40;;;;;;4950435;28;86987;-86
2022/10/05 00:07:09;;;;;;;10.25;5.78;;;21.20;67.50;;;;;;4959813;28;86403;-86
2022/10/05 00:09:35;;;;;;;8.82;5.07;;;21.20;67.50;;;;;;4937770;28;89171;-86
2022/10/05 00:12:15;;;;;;;9.95;5.45;;;21.20;67.40;;;;;;4938296;28;88252;-86
2022/10/05 00:14:42;;;;;;;10.77;5.90;;;21.20;67.40;;;;;;4936985;28;88168;-86
2022/10/05 00:17:20;;;;;;;7.30;5.18;;;21.20;67.30;;;;;;4935867;28;89521;-86
2022/10/05 00:19:50;;;;;;;8.20;5.53;;;21.20;67.30;;;;;;4936884;28;88343;-86
2022/10/05 00:22:18;;;;;;;10.65;5.35;;;21.20;67.30;;;;;;4939392;28;88445;-86
2022/10/05 00:24:44;;;;;;;9.95;5.50;;;21.20;67.30;;;;;;4940084;28;86997;-86
2022/10/05 00:27:35;;;;;;;8.00;5.32;;;21.20;67.30;;;;;;4939285;28;88009;-86
2022/10/05 00:30:13;;;;;;;7.85;4.97;;;21.20;67.10;;;;;;4900847;28;88148;-87
2022/10/05 00:32:42;;;;;;;8.57;5.20;;;21.20;67.20;;;;;;4901971;28;91919;-86
2022/10/05 00:35:09;;;;;;;7.15;5.03;;;21.20;67.30;;;;;;4886293;28;87682;-86
2022/10/05 00:37:35;;;;;;;7.25;4.80;;;21.20;68.00;;;;;;4902089;28;94572;-86
2022/10/05 00:40:01;;;;;;;8.00;5.07;;;21.10;67.20;;;;;;4902118;28;89930;-87
2022/10/05 00:42:37;;;;;;;7.47;4.90;;;21.10;67.40;;;;;;4886688;28;88514;-85
2022/10/05 00:45:10;;;;;;;7.20;4.90;;;21.10;67.30;;;;;;4902767;28;87133;-86
2022/10/05 00:48:05;;;;;;;7.30;5.03;;;21.10;67.10;;;;;;4895421;28;90212;-86
2022/10/05 00:50:39;;;;;;;7.78;5.15;;;21.20;67.00;;;;;;4922556;28;93098;-86
2022/10/05 00:53:14;;;;;;;7.68;5.13;;;21.20;67.10;;;;;;4921703;28;91304;-86
2022/10/05 00:56:11;;;;;;;6.15;4.68;;;21.10;67.30;;;;;;4898202;28;95326;-86
2022/10/05 00:58:49;;;;;;;7.32;4.97;;;21.20;67.10;;;;;;4921219;28;89735;-86
2022/10/05 01:01:36;;;;;;;6.63;4.70;;;21.10;67.00;;;;;;4921008;28;91264;-86
2022/10/05 01:04:27;;;;;;;6.82;4.95;;;21.10;67.10;;;;;;4839877;29;90268;-85
2022/10/05 01:06:56;;;;;;;6.68;5.22;;;21.10;66.90;;;;;;4872411;28;88836;-86
2022/10/05 01:09:48;;;;;;;7.32;4.93;;;21.10;67.10;;;;;;4905259;28;87864;-85
2022/10/05 01:12:27;;;;;;;7.82;4.93;;;21.10;67.10;;;;;;4921005;28;88650;-86
2022/10/05 01:15:17;;;;;;;6.88;4.25;;;21.10;67.20;;;;;;4904072;28;89756;-86
2022/10/05 01:18:01;;;;;;;7.18;4.85;;;21.10;67.10;;;;;;4921993;28;87523;-87
2022/10/05 01:20:51;;;;;;;6.55;4.50;;;21.10;67.10;;;;;;4904926;28;93718;-85
2022/10/05 01:23:54;;;;;;;6.88;4.75;;;21.10;67.00;;;;;;4921317;28;93140;-86
2022/10/05 01:26:38;;;;;;;7.85;5.13;;;21.10;67.00;;;;;;4921739;28;92670;-86
2022/10/05 01:29:23;;;;;;;6.72;4.85;;;21.10;67.10;;;;;;4921501;28;87553;-86
2022/10/05 01:32:07;;;;;;;8.15;4.63;;;21.10;67.20;;;;;;4921340;28;87425;-86
2022/10/05 01:34:57;;;;;;;7.10;4.82;;;21.10;66.90;;;;;;4932061;28;89299;-86
2022/10/05 01:37:42;;;;;;;5.57;4.72;;;21.10;67.00;;;;;;4960403;28;92014;-86
2022/10/05 01:40:12;;;;;;;5.45;4.70;;;21.10;66.90;;;;;;4963218;28;87188;-86
2022/10/05 01:43:08;;;;;;;7.97;4.75;;;21.10;66.90;;;;;;4961567;28;87469;-86
2022/10/05 01:46:08;;;;;;;5.75;4.32;;;21.10;67.00;;;;;;4976363;28;90863;-86
2022/10/05 01:48:43;;;;;;;7.28;4.60;;;21.10;67.10;;;;;;4962221;28;88459;-86
2022/10/05 01:51:11;;;;;;;7.05;5.03;;;21.10;67.10;;;;;;4960335;28;87214;-86
2022/10/05 01:53:37;;;;;;;5.93;4.20;;;21.10;66.90;;;;;;4963041;28;87156;-85
2022/10/05 01:56:30;;;;;;;6.78;4.50;;;21.10;67.00;;;;;;4960972;28;91245;-86
2022/10/05 01:59:15;;;;;;;6.22;4.60;;;21.10;67.00;;;;;;4961963;28;89387;-86
2022/10/05 02:02:02;;;;;;;6.85;4.70;;;21.10;67.00;;;;;;4961162;28;87852;-86
2022/10/05 02:04:50;;;;;;;5.50;4.45;;;21.10;66.90;;;;;;4961873;28;87412;-86
2022/10/05 02:07:37;;;;;;;5.15;4.28;;;21.10;67.00;;;;;;4976640;28;91213;-86
2022/10/05 02:10:19;;;;;;;6.55;4.47;;;21.10;66.90;;;;;;4961231;28;90869;-86
2022/10/05 02:12:47;;;;;;;7.30;4.35;;;21.10;66.90;;;;;;4959272;28;87310;-86
2022/10/05 02:15:21;;;;;;;6.85;4.60;;;21.10;66.90;;;;;;4932689;28;90476;-86
2022/10/05 02:18:13;;;;;;;6.13;4.95;;;21.10;66.80;;;;;;4961498;28;87299;-85
2022/10/05 02:20:42;;;;;;;6.45;4.75;;;21.10;66.90;;;;;;4947883;28;91516;-86
2022/10/05 02:23:13;;;;;;;6.75;4.53;;;21.00;66.90;;;;;;4931522;28;87863;-86
2022/10/05 02:25:45;;;;;;;5.68;4.53;;;21.10;66.90;;;;;;4949078;28;87739;-86
2022/10/05 02:28:37;;;;;;;7.55;4.38;;;21.10;66.80;;;;;;4948509;28;87932;-86
2022/10/05 02:31:09;;;;;;;5.30;4.43;;;21.10;67.00;;;;;;4948354;28;88340;-86
2022/10/05 02:33:35;;;;;;;4.72;3.97;;;21.10;66.80;;;;;;4947815;28;87123;-86
2022/10/05 02:36:07;;;;;;;6.50;4.78;;;21.00;66.90;;;;;;4948468;28;87044;-86
2022/10/05 02:38:58;;;;;;;5.20;4.13;;;21.10;67.10;;;;;;4931362;28;91985;-86
2022/10/05 02:41:32;;;;;;;6.35;4.63;;;21.10;67.00;;;;;;4923697;28;95290;-86
2022/10/05 02:44:05;;;;;;;6.80;4.72;;;21.00;66.90;;;;;;4923643;28;87323;-86
2022/10/05 02:46:51;;;;;;;6.05;4.20;;;21.10;66.80;;;;;;4933425;28;89133;-86
2022/10/05 02:49:49;;;;;;;7.35;4.70;;;21.10;66.90;;;;;;4949495;28;88449;-86
2022/10/05 02:52:28;;;;;;;6.93;4.85;;;21.10;66.90;;;;;;4956587;28;89001;-85
2022/10/05 02:55:09;;;;;;;7.32;4.45;;;21.10;67.00;;;;;;4960093;28;87834;-86
2022/10/05 02:57:58;;;;;;;6.38;4.43;;;21.10;66.80;;;;;;4976310;28;88083;-86
2022/10/05 03:00:24;;;;;;;;;;;21.10;66.60;;;;;;4976957;28;87845;-86
2022/10/05 03:02:59;;;;;;;5.68;4.38;;;21.00;66.70;;;;;;4979239;28;88694;-85
2022/10/05 03:05:49;;;;;;;6.15;4.18;;;21.00;66.50;;;;;;4968840;28;87311;-86
2022/10/05 03:09:01;;;;;;;4.45;3.80;;;21.00;66.60;;;;;;4977095;28;95529;-86
2022/10/05 03:11:29;;;;;;;5.93;4.20;;;21.00;66.60;;;;;;4892406;28;94365;-86
2022/10/05 03:14:04;;;;;;;6.35;4.40;;;21.00;66.40;;;;;;4912548;28;93166;-86
2022/10/05 03:16:44;;;;;;;5.68;4.60;;;21.00;66.60;;;;;;4908347;28;87898;-86
2022/10/05 03:19:38;;;;;;;5.55;4.20;;;21.00;66.60;;;;;;4909764;28;87122;-86
2022/10/05 03:22:27;;;;;;;8.30;4.35;;;21.00;66.50;;;;;;4908477;28;89468;-86
2022/10/05 03:25:11;;;;;;;5.80;4.13;;;21.00;66.90;;;;;;4894451;28;92754;-86
2022/10/05 03:28:00;;;;;;;5.55;4.25;;;21.00;66.60;;;;;;4909835;28;87468;-85
2022/10/05 03:30:30;;;;;;;5.57;4.55;;;21.00;66.80;;;;;;4919023;28;90806;-86
2022/10/05 03:33:19;;;;;;;5.63;4.35;;;21.00;66.80;;;;;;4919774;28;88798;-86
2022/10/05 03:35:50;;;;;;;;;;;21.00;66.60;;;;;;4903794;28;89131;-86
2022/10/05 03:38:24;;;;;;;6.57;4.45;;;21.00;66.70;;;;;;4921094;28;87761;-86
2022/10/05 03:41:03;;;;;;;5.60;3.92;;;21.00;66.60;;;;;;4919011;28;86931;-85
2022/10/05 03:44:05;;;;;;;5.20;4.10;;;21.00;66.60;;;;;;4902214;28;91687;-86
2022/10/05 03:46:42;;;;;;;5.05;3.72;;;21.00;66.60;;;;;;4920123;28;91534;-86
2022/10/05 03:49:19;;;;;;;4.82;3.85;;;21.00;66.60;;;;;;4960656;28;88015;-86
2022/10/05 03:51:52;;;;;;;5.15;3.83;;;21.00;66.50;;;;;;4960661;28;87391;-86
2022/10/05 03:54:35;;;;;;;6.00;4.25;;;21.00;66.40;;;;;;4960067;28;88943;-86
2022/10/05 03:57:19;;;;;;;4.75;3.72;;;20.90;66.70;;;;;;4963730;28;87045;-86
2022/10/05 04:00:03;;;;;;;5.00;3.63;;;20.90;66.60;;;;;;4964391;28;87755;-85
2022/10/05 04:02:35;;;;;;;5.57;4.28;;;21.00;66.60;;;;;;4963721;28;91407;-86
2022/10/05 04:05:11;;;;;;;4.78;3.78;;;20.90;66.60;;;;;;4963933;28;88274;-85
2022/10/05 04:07:59;;;;;;;4.47;4.03;;;20.90;66.70;;;;;;4962703;28;91398;-85
2022/10/05 04:10:24;;;;;;;4.85;3.85;;;20.90;66.70;;;;;;4930596;28;87233;-85
2022/10/05 04:13:01;;;;;;;5.07;3.50;;;20.90;66.70;;;;;;4931134;28;89700;-86
2022/10/05 04:15:38;;;;;;;4.72;4.00;;;21.00;66.80;;;;;;4932218;28;89580;-86
2022/10/05 04:18:16;;;;;;;4.35;3.78;;;20.90;66.80;;;;;;4932352;28;88607;-86
2022/10/05 04:20:46;;;;;;;5.55;4.15;;;20.90;66.70;;;;;;4933576;28;87359;-86
2022/10/05 04:23:36;;;;;;;4.97;3.97;;;20.90;66.70;;;;;;4914540;28;87714;-86
2022/10/05 04:26:07;;;;;;;4.82;3.78;;;20.90;66.70;;;;;;4931575;28;88592;-85
2022/10/05 04:29:15;;;;;;;3.97;3.60;;;20.90;66.70;;;;;;4922699;28;88364;-86
2022/10/05 04:31:55;;;;;;;4.38;3.65;;;20.90;66.70;;;;;;4863436;29;87439;-85
2022/10/05 04:34:44;;;;;;;4.65;3.58;;;20.90;66.60;;;;;;4863571;29;90831;-86
2022/10/05 04:37:22;;;;;;;;;;;20.90;66.30;;;;;;4865197;29;87892;-86
2022/10/05 04:40:20;;;;;;;4.53;3.85;;;20.90;66.40;;;;;;4850169;29;90747;-84
2022/10/05 04:43:27;;;;;;;5.22;4.00;;;20.90;66.50;;;;;;4903530;28;88004;-86
2022/10/05 04:46:13;;;;;;;5.35;3.50;;;21.00;66.40;;;;;;4903890;28;91251;-85
2022/10/05 04:48:51;;;;;;;3.90;3.40;;;21.00;65.70;;;;;;4886674;28;89873;-86
2022/10/05 04:51:34;;;;;;;4.10;3.70;;;20.90;66.30;;;;;;4902081;28;91136;-85
2022/10/05 04:54:23;;;;;;;4.10;3.28;;;20.90;66.40;;;;;;4902923;28;87205;-85
2022/10/05 04:56:57;;;;;;;4.15;3.20;;;20.90;66.60;;;;;;4904264;28;87434;-86
2022/10/05 04:59:31;;;;;;;3.50;3.10;;;20.90;66.80;;;;;;4902896;28;92921;-86
2022/10/05 05:02:06;;;;;;;3.47;3.13;;;21.00;66.80;;;;;;4903199;28;87834;-86
2022/10/05 05:04:54;;;;;;;4.97;3.15;;;21.00;66.70;;;;;;4903680;28;87963;-86
2022/10/05 05:07:39;;;;;;;3.53;3.10;;;21.00;66.70;;;;;;4887376;28;90622;-86
2022/10/05 05:10:34;;;;;;;3.67;2.95;;;21.10;66.60;;;;;;4977630;28;92484;-86
2022/10/05 05:13:25;;;;;;;5.47;3.28;;;21.10;66.40;;;;;;4962783;28;87345;-86
2022/10/05 05:15:57;;;;;;;3.88;3.38;;;21.10;66.40;;;;;;4963711;28;87518;-87
2022/10/05 05:18:47;;;;;;;5.15;2.90;;;21.10;66.10;;;;;;4963339;28;87370;-86
2022/10/05 05:21:32;;;;;;;3.78;3.03;;;21.10;66.10;;;;;;4961441;28;90379;-86
2022/10/05 05:24:11;;;;;;;5.32;3.33;;;21.10;65.60;;;;;;4963449;28;88408;-85
2022/10/05 05:26:52;;;;;;;5.63;3.53;;;21.20;65.80;;;;;;4964128;28;86997;-86
2022/10/05 05:29:34;;;;;;;4.78;3.15;;;21.20;65.50;;;;;;4978333;28;95053;-86
2022/10/05 05:32:13;;;;;;;4.90;2.83;;;21.20;65.60;;;;;;4967398;28;90150;-85
2022/10/05 05:34:50;;;;;;;8.63;4.15;;;21.20;65.60;;;;;;4954495;28;90142;-86
2022/10/05 05:37:37;;;;;;;18.05;4.65;;;21.20;65.50;;;;;;4980264;28;88565;-86
2022/10/05 05:40:14;;;;;;;20.65;4.55;;;21.40;65.20;;;;;;4984898;28;87402;-87
2022/10/05 05:43:01;;;;;;;19.92;5.28;;;21.60;64.60;;;;;;4964566;28;92892;-86
2022/10/05 05:45:32;;;;;;;18.15;5.43;;;21.80;64.20;;;;;;4955655;28;90005;-86
2022/10/05 05:48:01;;;;;;;17.73;5.38;;;22.00;63.90;;;;;;4981150;28;86859;-84
2022/10/05 05:50:41;;;;;;;20.17;5.20;;;22.00;63.80;;;;;;4981542;28;87394;-85
2022/10/05 05:53:22;;;;;;;29.55;7.20;;;22.00;64.10;;;;;;4981967;28;88456;-87
2022/10/05 05:56:05;;;;;;;21.60;6.75;;;22.00;64.00;;;;;;4981701;28;90976;-83
2022/10/05 05:58:37;;;;;;;24.73;7.13;;;22.10;64.50;;;;;;4981920;28;87546;-85
2022/10/05 06:01:25;;;;;;;31.17;8.25;;;22.10;64.20;;;;;;4980318;28;86902;-86
2022/10/05 06:03:59;;;;;;;27.85;8.00;;;22.20;64.40;;;;;;4966105;28;88321;-85
2022/10/05 06:06:30;;;;;;;24.73;7.57;;;22.20;64.20;;;;;;4964670;28;88496;-86
2022/10/05 06:09:13;;;;;;;25.25;7.43;;;22.20;63.80;;;;;;4964476;28;86816;-85
2022/10/05 06:11:54;;;;;;;20.50;7.38;;;22.30;64.00;;;;;;4963954;28;87395;-86
2022/10/05 06:15:10;;;;;;;22.27;7.05;;;22.40;63.80;;;;;;4964244;28;93095;-87
2022/10/05 06:17:44;;;;;;;24.63;8.05;;;22.40;63.70;;;;;;4863372;29;91799;-86
2022/10/05 06:20:22;;;;;;;28.90;7.90;;;22.30;63.70;;;;;;4849990;28;86959;-85
2022/10/05 06:22:50;;;;;;;27.10;7.87;;;22.30;63.60;;;;;;4866818;28;87166;-85
2022/10/05 06:25:46;;;;;;;28.02;8.20;;;22.30;63.30;;;;;;4848087;29;89854;-85
2022/10/05 06:28:14;;;;;;;25.30;7.88;;;22.30;63.20;;;;;;4861357;28;89082;-84
2022/10/05 06:31:10;;;;;;;23.75;7.63;;;22.30;63.60;;;;;;4862808;28;88420;-86
2022/10/05 06:33:51;;;;;;;24.35;8.05;;;22.30;63.90;;;;;;4864197;28;87510;-88
2022/10/05 06:36:41;;;;;;;26.17;8.10;;;22.20;62.80;;;;;;4862828;28;90314;-87
2022/10/05 06:39:07;;;;;;;25.38;7.75;;;22.30;63.80;;;;;;4853325;29;88868;-83
2022/10/05 06:41:41;;;;;;;31.08;8.23;;;22.20;63.60;;;;;;4863261;29;87671;-84
2022/10/05 06:44:13;;;;;;;25.35;7.22;;;22.20;63.80;;;;;;4862932;29;88700;-84
2022/10/05 06:47:24;;;;;;;24.75;7.38;;;22.20;63.50;;;;;;4861459;29;91828;-84
2022/10/05 06:49:57;;;;;;;26.17;7.85;;;22.10;63.50;;;;;;4788740;29;88555;-84
2022/10/05 06:52:49;;;;;;;24.40;7.00;;;22.10;62.70;;;;;;4788120;29;87555;-83
2022/10/05 06:55:22;;;;;;;23.70;7.40;;;22.10;62.70;;;;;;4857693;29;88010;-83
2022/10/05 06:58:20;;;;;;;24.40;7.13;;;22.10;62.90;;;;;;4862705;29;88759;-83
2022/10/05 07:00:55;;;;;;;21.25;6.50;;;22.10;63.30;;;;;;4843492;29;89789;-83
2022/10/05 07:03:44;;;;;;;24.00;6.93;;;22.10;63.40;;;;;;4844409;29;86956;-83
2022/10/05 07:06:14;;;;;;;22.73;6.87;;;22.10;63.50;;;;;;4843104;29;87360;-83
2022/10/05 07:08:54;;;;;;;23.25;7.35;;;22.20;62.70;;;;;;4844306;29;87766;-83
2022/10/05 07:11:44;;;;;;;33.50;8.52;;;22.10;62.50;;;;;;4836268;29;95661;-84
2022/10/05 07:14:22;;;;;;;27.83;7.70;;;22.20;62.60;;;;;;4843161;29;87478;-84
2022/10/05 07:17:16;;;;;;;37.00;9.10;;;22.20;63.40;;;;;;4843002;29;90725;-83
2022/10/05 07:20:22;;;;;;;47.25;8.77;;;22.20;63.00;;;;;;4843621;29;90946;-83
2022/10/05 07:22:56;;;;;;;38.25;9.93;;;22.20;63.40;;;;;;4806493;29;88371;-84
2022/10/05 07:25:40;;;;;;;34.28;8.65;;;22.20;63.20;;;;;;4806953;29;88984;-85
2022/10/05 07:29:01;;;;;;;37.97;8.95;;;22.20;63.50;;;;;;4825252;29;87871;-84
2022/10/05 07:31:56;;;;;;;34.15;9.10;;;22.30;64.00;;;;;;4774249;29;91070;-85
2022/10/05 07:34:46;;;;;;;41.03;8.82;;;22.30;64.00;;;;;;4776904;29;87817;-84
2022/10/05 07:40:27;;;;;;;58.17;10.57;;;22.40;63.80;;;;;;4811744;29;87580;-83
2022/10/05 07:43:13;;;;;;;53.75;10.70;;;22.40;64.00;;;;;;4812669;29;87720;-84
2022/10/05 07:45:44;;;;;;;43.45;9.52;;;22.40;64.20;;;;;;4811483;29;90221;-83
2022/10/05 07:48:13;;;;;;;50.28;10.75;;;22.40;63.90;;;;;;4812574;29;87809;-83
2022/10/05 07:50:51;;;;;;;53.72;10.68;;;22.40;64.00;;;;;;4820815;29;87570;-83
2022/10/05 07:53:30;;;;;;;45.83;10.00;;;22.40;64.00;;;;;;4818564;29;93762;-84
2022/10/05 07:56:02;;;;;;;51.27;9.73;;;22.40;64.40;;;;;;4811227;29;88800;-83
2022/10/05 07:58:39;;;;;;;67.82;10.90;;;22.50;64.30;;;;;;4813748;29;87497;-84
2022/10/05 08:01:05;;;;;;;53.45;10.73;;;22.40;62.40;;;;;;4850497;29;90664;-84
2022/10/05 08:03:51;;;;;;;54.90;11.57;;;22.40;62.50;;;;;;4857955;28;92677;-84
2022/10/05 08:06:56;;;;;;;50.83;10.07;;;22.40;63.70;;;;;;4857267;28;90486;-84
2022/10/05 08:09:32;;;;;;;49.58;9.93;;;22.50;64.10;;;;;;4915112;28;87348;-84
2022/10/05 08:12:15;;;;;;;58.42;10.70;;;22.50;64.30;;;;;;4915408;28;87480;-83
2022/10/05 08:15:10;;;;;;;62.20;13.25;;;22.50;64.50;;;;;;4914861;28;88477;-85
2022/10/05 08:17:59;;;;;;;77.35;12.65;;;22.60;64.10;;;;;;4913250;28;92595;-84
2022/10/05 08:20:43;;;;;;;55.80;11.60;;;22.60;64.70;;;;;;4914414;28;88347;-84
2022/10/05 08:23:44;;;;;;;80.70;13.77;;;22.60;64.50;;;;;;4915427;28;88002;-85
2022/10/05 08:26:12;;;;;;;59.53;12.07;;;22.60;65.00;;;;;;4865819;29;88561;-84
2022/10/05 08:28:46;;;;;;;73.78;12.15;;;22.60;65.00;;;;;;4867137;29;87384;-85
2022/10/05 08:31:37;;;;;;;78.53;12.40;;;22.60;64.50;;;;;;4867386;29;88720;-85
2022/10/05 08:34:09;;;;;;;60.35;12.85;;;22.60;64.60;;;;;;4867358;29;87718;-84
2022/10/05 08:37:11;;;;;;;64.03;12.10;;;22.60;64.70;;;;;;4851041;29;90644;-85
2022/10/05 08:39:49;;;;;;;68.07;12.27;;;22.50;64.80;;;;;;4851198;29;90690;-84
2022/10/05 08:42:39;;;;;;;70.80;12.55;;;22.50;64.40;;;;;;4855479;29;87642;-85
2022/10/05 08:45:18;;;;;;;65.88;11.35;;;22.60;65.30;;;;;;4886037;28;87433;-84
2022/10/05 08:48:21;;;;;;;67.32;11.85;;;22.60;65.10;;;;;;4903093;28;92943;-85
2022/10/05 08:50:55;;;;;;;54.72;11.45;;;22.60;65.90;;;;;;4902000;28;93572;-87
2022/10/05 08:53:42;;;;;;;50.90;11.10;;;22.60;65.90;;;;;;4902159;28;87113;-86
2022/10/05 08:56:34;;;;;;;62.20;11.45;;;22.60;65.80;;;;;;4902255;28;90814;-85
2022/10/05 08:59:40;;;;;;;58.22;12.57;;;22.60;66.20;;;;;;4901884;28;89456;-86
2022/10/05 09:02:53;;;;;;;44.88;10.00;;;22.60;66.60;;;;;;4963542;28;87838;-88
2022/10/05 09:05:19;;;;;;;57.90;11.25;;;22.70;66.60;;;;;;4941067;28;87859;-86
2022/10/05 09:08:10;;;;;;;48.80;10.68;;;22.70;66.70;;;;;;4924652;28;90559;-85
2022/10/05 09:10:54;;;;;;;56.60;12.00;;;22.70;66.90;;;;;;4892297;28;89131;-85
2022/10/05 09:13:38;;;;;;;54.95;11.02;;;22.60;66.80;;;;;;4893682;28;91126;-87
2022/10/05 09:16:28;;;;;;;45.85;10.00;;;22.70;66.80;;;;;;4890803;28;88481;-86
2022/10/05 09:19:25;;;;;;;45.95;9.65;;;22.60;66.20;;;;;;4884245;28;90055;-86
2022/10/05 09:22:25;;;;;;;40.15;8.63;;;22.60;65.60;;;;;;4892361;28;88468;-87
2022/10/05 09:24:55;;;;;;;47.45;10.10;;;22.70;65.40;;;;;;4800129;29;88362;-88
2022/10/05 09:27:35;;;;;;;35.72;8.85;;;22.60;65.00;;;;;;4800159;29;87563;-85
2022/10/05 09:30:09;;;;;;;41.60;9.20;;;22.60;65.10;;;;;;4798385;29;87479;-87
2022/10/05 09:32:38;;;;;;;40.53;9.32;;;22.60;64.90;;;;;;4792350;29;91647;-87
2022/10/05 09:35:27;;;;;;;39.83;8.35;;;22.70;65.30;;;;;;4799371;29;88024;-86
2022/10/05 09:38:23;;;;;;;43.10;8.93;;;22.70;65.90;;;;;;4809548;29;87732;-87
2022/10/05 09:41:07;;;;;;;39.47;9.52;;;22.70;66.20;;;;;;4809173;29;87536;-86
2022/10/05 09:43:36;;;;;;;50.97;9.82;;;22.70;66.10;;;;;;4808964;29;89775;-88
2022/10/05 09:46:32;;;;;;;34.53;8.40;;;22.80;66.50;;;;;;4817177;29;88743;-87
2022/10/05 09:49:18;;;;;;;32.65;8.27;;;22.80;65.80;;;;;;4866544;29;87276;-90
2022/10/05 09:52:04;;;;;;;39.40;8.63;;;22.90;65.90;;;;;;4865680;29;88540;-92
2022/10/05 09:54:43;;;;;;;33.55;8.85;;;22.90;66.00;;;;;;4865398;29;88514;-92
2022/10/05 09:57:27;;;;;;;33.13;7.90;;;23.00;66.20;;;;;;4861406;29;87930;-90
2022/10/05 10:00:20;;;;;;;29.58;7.50;;;23.00;66.20;;;;;;4859091;29;88445;-87
2022/10/05 10:03:07;;;;;;;42.47;8.60;;;23.00;66.20;;;;;;4958744;28;87453;-89
2022/10/05 10:05:32;;;;;;;33.05;7.95;;;23.10;66.00;;;;;;4957996;28;94011;-91
2022/10/05 10:08:19;;;;;;;38.20;9.18;;;23.00;66.00;;;;;;4956821;28;88323;-89
2022/10/05 10:10:51;;;;;;;30.98;8.07;;;23.10;66.30;;;;;;4956981;28;87859;-87
2022/10/05 10:13:18;;;;;;;32.35;7.80;;;23.20;65.80;;;;;;4955439;28;90612;-90
2022/10/05 10:15:58;;;;;;;30.88;6.47;;;23.10;65.50;;;;;;4953406;28;92024;-87
2022/10/05 10:18:56;;;;;;;27.33;7.53;;;23.10;65.60;;;;;;4954590;28;87968;-87
2022/10/05 10:21:50;;;;;;;22.13;6.55;;;23.10;64.30;;;;;;4918688;28;87074;-85
2022/10/05 10:24:41;;;;;;;27.67;6.43;;;23.00;63.70;;;;;;4916339;28;87708;-86
2022/10/05 10:27:43;;;;;;;25.13;6.82;;;23.00;65.20;;;;;;4917430;28;88554;-88
2022/10/05 10:30:28;;;;;;;28.65;7.05;;;23.00;65.40;;;;;;4916102;28;87716;-83
2022/10/05 10:33:02;;;;;;;26.25;6.60;;;23.00;65.10;;;;;;4917236;28;87536;-86
2022/10/05 10:36:04;;;;;;;24.13;7.13;;;23.00;65.20;;;;;;4919041;28;87275;-85
2022/10/05 10:38:51;;;;;;;22.30;6.63;;;23.00;65.30;;;;;;4920553;28;94168;-86
2022/10/05 10:41:41;;;;;;;18.42;5.80;;;23.10;65.10;;;;;;4920105;28;93029;-89
2022/10/05 10:44:46;;;;;;;25.67;7.45;;;23.10;64.70;;;;;;4919810;28;87211;-85
2022/10/05 10:47:30;;;;;;;27.38;6.18;;;23.10;64.50;;;;;;4918063;28;87076;-85
2022/10/05 10:50:27;;;;;;;19.77;5.75;;;23.00;65.00;;;;;;4917905;28;87635;-85
2022/10/05 10:53:26;;;;;;;29.08;5.93;;;22.90;65.10;;;;;;4917454;28;89825;-85
2022/10/05 10:56:00;;;;;;;23.63;6.88;;;22.80;65.20;;;;;;4918218;28;87521;-85
2022/10/05 10:58:50;;;;;;;19.48;5.50;;;22.80;65.40;;;;;;4939690;28;87431;-86
2022/10/05 11:01:35;;;;;;;27.65;7.35;;;22.70;65.50;;;;;;4960902;28;88322;-87
2022/10/05 11:04:19;;;;;;;26.15;6.40;;;22.70;65.80;;;;;;4958218;28;88251;-86
2022/10/05 11:07:15;;;;;;;23.77;6.57;;;22.70;65.70;;;;;;4959073;28;88334;-87
2022/10/05 11:10:07;;;;;;;19.20;5.60;;;22.70;65.90;;;;;;4959006;28;87419;-87
2022/10/05 11:13:10;;;;;;;18.98;5.95;;;22.60;65.70;;;;;;4959290;28;91233;-85
2022/10/05 11:16:17;;;;;;;21.20;6.18;;;22.60;65.90;;;;;;4961548;28;88363;-86
2022/10/05 11:19:04;;;;;;;27.75;6.95;;;22.60;65.80;;;;;;4961264;28;86890;-86
2022/10/05 11:21:47;;;;;;;20.30;5.40;;;22.60;66.00;;;;;;4959776;28;93665;-86
2022/10/05 11:24:39;;;;;;;13.98;5.35;;;22.60;66.00;;;;;;4957299;28;88435;-85
2022/10/05 11:27:15;;;;;;;13.95;4.53;;;22.50;66.00;;;;;;4961189;28;87028;-85
2022/10/05 11:29:41;;;;;;;16.10;5.53;;;22.50;67.00;;;;;;4961457;28;87267;-85
2022/10/05 11:32:15;;;;;;;21.52;6.25;;;22.50;66.30;;;;;;4961394;28;87571;-86
2022/10/05 11:35:02;;;;;;;19.52;5.40;;;22.50;66.30;;;;;;4957072;28;93400;-85
2022/10/05 11:37:58;;;;;;;17.92;5.53;;;22.40;66.30;;;;;;4959038;28;89442;-85
2022/10/05 11:40:35;;;;;;;16.73;5.00;;;22.40;66.20;;;;;;4960298;28;87359;-86
2022/10/05 11:43:18;;;;;;;15.20;5.78;;;22.40;66.20;;;;;;4961516;28;87679;-86
2022/10/05 11:45:56;;;;;;;23.73;5.63;;;22.40;66.30;;;;;;4960834;28;89031;-85
2022/10/05 11:48:21;;;;;;;14.88;4.95;;;22.40;66.10;;;;;;4958243;28;87924;-86
2022/10/05 11:50:56;;;;;;;16.15;5.53;;;22.40;66.40;;;;;;4959853;28;87517;-85
2022/10/05 11:53:37;;;;;;;15.02;5.25;;;22.40;66.30;;;;;;4958129;28;91558;-85
2022/10/05 11:56:22;;;;;;;15.90;5.60;;;22.30;66.30;;;;;;4959219;28;88129;-85
2022/10/05 11:58:57;;;;;;;12.98;4.63;;;22.30;66.30;;;;;;4974268;28;91728;-85
2022/10/05 12:01:35;;;;;;;15.15;4.85;;;22.30;66.60;;;;;;4957243;28;88324;-86
2022/10/05 12:04:46;;;;;;;14.85;4.50;;;22.30;66.40;;;;;;4956521;28;90166;-85
2022/10/05 12:07:19;;;;;;;12.57;4.85;;;22.30;66.40;;;;;;4918127;28;87969;-85
2022/10/05 12:13:12;;;;;;;17.88;5.70;;;22.30;66.70;;;;;;4880369;28;87300;-86
2022/10/05 12:16:30;;;;;;;17.17;5.30;;;22.20;66.40;;;;;;4878361;28;87391;-84
2022/10/05 12:19:12;;;;;;;14.10;4.88;;;22.20;66.40;;;;;;4862461;29;91611;-85
2022/10/05 12:22:03;;;;;;;13.30;4.90;;;22.20;66.30;;;;;;4863747;29;89650;-86
2022/10/05 12:24:34;;;;;;;11.88;5.03;;;22.30;66.60;;;;;;4847472;29;87360;-85
2022/10/05 12:27:00;;;;;;;12.02;4.75;;;22.20;66.60;;;;;;4863501;29;87489;-85
2022/10/05 12:29:42;;;;;;;14.48;4.55;;;22.20;66.50;;;;;;4863974;28;89295;-86
2022/10/05 12:32:28;;;;;;;8.48;3.80;;;22.20;66.50;;;;;;4862473;28;89908;-85
2022/10/05 12:35:21;;;;;;;9.90;4.85;;;22.20;66.40;;;;;;4863172;28;88296;-86
2022/10/05 12:37:52;;;;;;;9.48;4.20;;;22.20;66.50;;;;;;4756862;29;87870;-86
2022/10/05 12:40:44;;;;;;;14.65;4.95;;;22.20;66.50;;;;;;4768465;29;88518;-85
2022/10/05 12:43:27;;;;;;;11.00;4.30;;;22.20;66.50;;;;;;4720471;29;91257;-86
2022/10/05 12:46:18;;;;;;;12.00;4.68;;;22.20;66.40;;;;;;4735007;29;87372;-86
2022/10/05 12:49:11;;;;;;;13.35;5.05;;;22.20;66.40;;;;;;4754434;29;87015;-85
2022/10/05 12:51:43;;;;;;;15.18;5.13;;;22.20;66.40;;;;;;4807172;29;87830;-86
2022/10/05 12:54:14;;;;;;;15.88;5.18;;;22.20;66.30;;;;;;4814073;28;91765;-85
2022/10/05 12:57:06;;;;;;;10.57;4.22;;;22.20;66.40;;;;;;4880900;28;88448;-86
2022/10/05 12:59:51;;;;;;;11.70;4.38;;;22.20;66.50;;;;;;4742481;29;90532;-86
2022/10/05 13:02:43;;;;;;;15.13;4.53;;;22.20;66.50;;;;;;4788249;29;92247;-86
2022/10/05 13:05:08;;;;;;;14.65;4.38;;;22.20;66.40;;;;;;4788141;29;88107;-86
2022/10/05 13:07:39;;;;;;;10.13;4.47;;;22.20;66.40;;;;;;4787703;29;87229;-85
2022/10/05 13:10:23;;;;;;;9.20;4.13;;;22.10;66.30;;;;;;4788040;29;87464;-86
2022/10/05 13:13:19;;;;;;;12.55;4.28;;;22.10;66.30;;;;;;4789369;29;88989;-87
2022/10/05 13:15:51;;;;;;;13.68;4.18;;;22.20;66.50;;;;;;4853664;29;88673;-87
2022/10/05 13:18:35;;;;;;;11.18;3.92;;;22.40;66.00;;;;;;4861208;29;87355;-90
2022/10/05 13:21:25;;;;;;;13.85;4.63;;;22.60;65.60;;;;;;4859801;29;87021;-88
2022/10/05 13:23:59;;;;;;;14.38;3.67;;;22.60;65.40;;;;;;4860180;29;89570;-88
2022/10/05 13:26:38;;;;;;;10.80;4.07;;;22.80;64.00;;;;;;4860785;29;89183;-86
2022/10/05 13:29:32;;;;;;;8.70;3.58;;;22.90;63.60;;;;;;4860146;29;87710;-85
2022/10/05 13:32:14;;;;;;;13.52;4.28;;;23.00;62.90;;;;;;4853728;28;87896;-87
2022/10/05 13:34:51;;;;;;;9.82;4.40;;;23.00;63.50;;;;;;4863758;28;90657;-87
2022/10/05 13:37:16;;;;;;;35.53;13.25;;;22.90;63.40;;;;;;4938758;28;89227;-91
2022/10/05 13:40:04;;;;;;;23.08;7.43;;;23.00;63.80;;;;;;4961564;28;87326;-88
2022/10/05 13:42:33;;;;;;;24.73;7.40;;;23.10;63.20;;;;;;4961344;28;90589;-91
2022/10/05 13:45:21;;;;;;;23.35;6.85;;;23.00;63.00;;;;;;4960512;28;89095;-89
2022/10/05 13:48:15;;;;;;;19.25;7.05;;;23.00;62.80;;;;;;4963730;28;87109;-90
2022/10/05 13:51:05;;;;;;;33.63;7.78;;;22.90;63.90;;;;;;4962071;28;87835;-91
2022/10/05 13:53:40;;;;;;;20.35;6.60;;;22.90;63.70;;;;;;4977778;28;94761;-88
2022/10/05 13:56:41;;;;;;;29.80;6.80;;;22.90;64.10;;;;;;4962420;28;89092;-89
2022/10/05 13:59:10;;;;;;;32.05;6.75;;;22.90;64.30;;;;;;4900350;28;89108;-88
2022/10/05 14:02:03;;;;;;;21.75;6.85;;;23.00;65.20;;;;;;4901496;28;87203;-87
2022/10/05 14:04:50;;;;;;;22.95;7.22;;;23.00;65.00;;;;;;4900500;28;89752;-87
2022/10/05 14:07:25;;;;;;;38.42;8.57;;;23.00;64.90;;;;;;4901386;28;90512;-90